Time;durP1;ratioP1;P1;durP2;ratioP2;P2;SDS_P1;SDS_P2;PMS_P1;PMS_P2;Temp;Humidity;BMP_temperature;BMP_pressure;BME280_temperature;BME280_humidity;BME280_pressure;Samples;Min_cycle;Max_cycle;Signal;HPM_P1;HPM_P2
2024/01/09 00:01:11;;;;;;;7.20;1.77;;;26.00;67.50;;;;;;5062726;28;20187;-72
2024/01/09 00:03:39;;;;;;;7.00;1.60;;;26.20;66.80;;;;;;5062328;28;20179;-72
2024/01/09 00:06:06;;;;;;;4.80;1.30;;;26.10;65.90;;;;;;5051026;28;20237;-73
2024/01/09 00:08:38;;;;;;;6.97;1.30;;;25.90;66.20;;;;;;5066436;28;20657;-72
2024/01/09 00:11:05;;;;;;;4.27;1.13;;;25.70;66.30;;;;;;5061112;28;20219;-72
2024/01/09 00:13:32;;;;;;;5.33;1.40;;;25.70;66.60;;;;;;5042442;28;20619;-71
2024/01/09 00:16:00;;;;;;;6.77;1.40;;;25.70;67.10;;;;;;5045819;28;20215;-73
2024/01/09 00:18:27;;;;;;;4.93;1.20;;;25.90;67.20;;;;;;5060477;28;20213;-72
2024/01/09 00:20:54;;;;;;;6.07;1.43;;;26.30;66.20;;;;;;5057791;28;20180;-73
2024/01/09 00:23:24;;;;;;;5.60;1.00;;;26.40;65.00;;;;;;5048862;28;20585;-73
2024/01/09 00:25:52;;;;;;;5.57;1.10;;;26.10;65.80;;;;;;5054342;28;20272;-72
2024/01/09 00:28:19;;;;;;;7.10;1.30;;;26.30;65.70;;;;;;5045861;28;20187;-74
2024/01/09 00:30:46;;;;;;;4.00;1.10;;;26.20;64.40;;;;;;5057031;28;20565;-72
2024/01/09 00:33:14;;;;;;;4.33;1.23;;;26.30;65.00;;;;;;5057071;28;20680;-72
2024/01/09 00:35:41;;;;;;;5.50;1.30;;;26.30;65.40;;;;;;5061272;28;20238;-73
2024/01/09 00:38:08;;;;;;;7.07;1.37;;;26.50;65.20;;;;;;5060498;28;20182;-74
2024/01/09 00:40:36;;;;;;;8.50;2.10;;;26.60;65.30;;;;;;5060602;28;20266;-73
2024/01/09 00:43:03;;;;;;;11.93;2.00;;;26.70;65.90;;;;;;5060247;28;20745;-71
2024/01/09 00:45:30;;;;;;;11.03;1.40;;;26.80;64.90;;;;;;5055727;28;20191;-73
2024/01/09 00:47:58;;;;;;;7.03;1.67;;;26.80;64.90;;;;;;5059643;28;20630;-72
2024/01/09 00:50:25;;;;;;;7.27;1.23;;;26.90;64.20;;;;;;5058915;28;20212;-72
2024/01/09 00:52:52;;;;;;;7.13;1.67;;;26.60;64.60;;;;;;5058846;28;20527;-71
2024/01/09 00:55:19;;;;;;;3.83;1.20;;;26.60;64.20;;;;;;5067173;28;20172;-73
2024/01/09 00:57:47;;;;;;;5.73;1.50;;;26.50;64.00;;;;;;5052540;28;20661;-73
2024/01/09 01:00:15;;;;;;;4.77;1.20;;;26.60;64.20;;;;;;5054167;28;20690;-69
2024/01/09 01:02:42;;;;;;;6.07;1.20;;;26.60;64.50;;;;;;5054424;28;20188;-74
2024/01/09 01:05:13;;;;;;;7.03;1.57;;;26.60;64.30;;;;;;5053139;28;20244;-70
2024/01/09 01:07:40;;;;;;;7.63;1.47;;;26.50;64.20;;;;;;5058011;28;20187;-70
2024/01/09 01:10:11;;;;;;;5.13;1.03;;;26.70;63.70;;;;;;5054669;28;20242;-73
2024/01/09 01:12:39;;;;;;;3.73;1.47;;;26.90;63.20;;;;;;5062983;28;20188;-71
2024/01/09 01:15:07;;;;;;;4.90;1.43;;;27.00;63.70;;;;;;5060382;28;20187;-70
2024/01/09 01:17:34;;;;;;;11.03;1.50;;;27.10;63.50;;;;;;5057278;28;20191;-71
2024/01/09 01:20:02;;;;;;;6.93;1.60;;;27.10;63.50;;;;;;5060770;28;20171;-71
2024/01/09 01:22:30;;;;;;;6.73;1.53;;;27.00;63.90;;;;;;5051833;28;20184;-71
2024/01/09 01:24:58;;;;;;;2.63;0.87;;;27.10;63.80;;;;;;5040851;28;20797;-72
2024/01/09 01:27:25;;;;;;;6.50;1.33;;;27.10;63.00;;;;;;5055874;28;20267;-71
2024/01/09 01:29:55;;;;;;;3.20;1.23;;;27.10;62.40;;;;;;5062700;28;20521;-71
2024/01/09 01:32:23;;;;;;;6.03;1.47;;;26.90;62.70;;;;;;5048975;28;20208;-70
2024/01/09 01:34:50;;;;;;;4.80;1.33;;;27.20;62.60;;;;;;5057903;28;20200;-71
2024/01/09 01:37:17;;;;;;;5.70;1.30;;;27.40;61.80;;;;;;5058092;28;20249;-72
2024/01/09 01:39:44;;;;;;;7.43;1.10;;;27.30;61.40;;;;;;5058910;28;20198;-70
2024/01/09 01:42:12;;;;;;;8.30;1.50;;;27.00;62.20;;;;;;5019361;28;20237;-71
2024/01/09 01:44:39;;;;;;;2.83;1.20;;;27.20;62.00;;;;;;5031285;28;20627;-70
2024/01/09 01:47:07;;;;;;;3.37;1.03;;;27.30;61.10;;;;;;5026325;28;20272;-70
2024/01/09 01:49:34;;;;;;;4.90;1.20;;;27.20;61.50;;;;;;5034695;28;20686;-69
2024/01/09 01:52:02;;;;;;;7.10;1.50;;;27.10;61.70;;;;;;5034755;28;20573;-72
2024/01/09 01:54:32;;;;;;;6.67;1.17;;;27.30;61.20;;;;;;5039781;28;20213;-70
2024/01/09 01:57:01;;;;;;;6.23;1.30;;;27.40;61.20;;;;;;5028144;28;20271;-72
2024/01/09 01:59:28;;;;;;;4.93;0.93;;;27.60;60.10;;;;;;5029755;28;20263;-71
2024/01/09 02:01:56;;;;;;;4.53;0.90;;;27.80;59.90;;;;;;5032950;28;20173;-70
2024/01/09 02:04:25;;;;;;;4.53;1.37;;;27.70;58.70;;;;;;5032243;28;20742;-71
2024/01/09 02:06:53;;;;;;;2.67;1.00;;;27.40;58.80;;;;;;5036217;28;20666;-70
2024/01/09 02:09:21;;;;;;;2.50;0.90;;;27.60;58.70;;;;;;5021257;28;20236;-70
2024/01/09 02:11:49;;;;;;;3.07;0.70;;;27.80;58.00;;;;;;5022505;28;20224;-70
2024/01/09 02:14:17;;;;;;;2.93;0.90;;;27.80;58.00;;;;;;5033944;28;20176;-70
2024/01/09 02:16:44;;;;;;;3.43;0.83;;;28.00;57.80;;;;;;5037227;28;20634;-71
2024/01/09 02:19:11;;;;;;;4.57;1.00;;;27.90;57.50;;;;;;5038427;28;20202;-72
2024/01/09 02:21:39;;;;;;;5.47;1.30;;;28.30;58.60;;;;;;5028259;28;20279;-72
2024/01/09 02:24:06;;;;;;;4.57;1.23;;;28.60;58.90;;;;;;5036762;28;20183;-72
2024/01/09 02:26:41;;;;;;;5.77;1.47;;;28.50;58.50;;;;;;5042598;28;20626;-71
2024/01/09 02:29:12;;;;;;;9.77;1.60;;;28.10;58.50;;;;;;5034211;28;20179;-71
2024/01/09 02:31:39;;;;;;;9.33;1.80;;;28.30;59.20;;;;;;5034125;28;20314;-72
2024/01/09 02:34:09;;;;;;;4.50;1.30;;;28.60;58.90;;;;;;5039064;28;20184;-71
2024/01/09 02:36:36;;;;;;;5.00;1.60;;;28.20;59.40;;;;;;5043542;28;20184;-70
2024/01/09 02:39:03;;;;;;;7.23;1.10;;;28.20;59.90;;;;;;5040797;28;20206;-71
2024/01/09 02:41:38;;;;;;;6.23;1.47;;;28.10;60.40;;;;;;5042590;28;20215;-72
2024/01/09 02:44:05;;;;;;;5.50;1.30;;;28.50;60.40;;;;;;5043648;28;21119;-71
2024/01/09 02:46:33;;;;;;;5.67;1.13;;;29.00;58.20;;;;;;5052357;28;20180;-73
2024/01/09 02:49:00;;;;;;;7.03;1.93;;;28.90;58.30;;;;;;5058252;28;20191;-73
2024/01/09 02:51:27;;;;;;;4.80;1.27;;;28.90;58.50;;;;;;5060026;28;20246;-73
2024/01/09 02:53:54;;;;;;;2.73;0.97;;;27.90;60.40;;;;;;5045236;28;20226;-73
2024/01/09 02:56:22;;;;;;;6.17;1.23;;;27.60;61.40;;;;;;5047329;28;20212;-71
2024/01/09 02:58:50;;;;;;;5.23;1.50;;;27.70;61.80;;;;;;5061907;28;20180;-72
2024/01/09 03:01:17;;;;;;;5.07;1.43;;;27.60;62.20;;;;;;5050010;28;20245;-71
2024/01/09 03:03:44;;;;;;;5.77;1.30;;;27.80;60.50;;;;;;5058012;28;20242;-72
2024/01/09 03:06:11;;;;;;;8.03;1.70;;;27.80;60.50;;;;;;5067957;28;20245;-72
2024/01/09 03:08:39;;;;;;;8.07;1.70;;;27.30;62.30;;;;;;5052785;28;20215;-72
2024/01/09 03:11:06;;;;;;;10.90;1.83;;;27.30;61.80;;;;;;5054945;28;20566;-71
2024/01/09 03:13:33;;;;;;;11.07;1.50;;;27.30;62.10;;;;;;5059423;28;20230;-71
2024/01/09 03:16:01;;;;;;;9.83;1.83;;;27.30;62.10;;;;;;5054973;28;20187;-71
2024/01/09 03:18:28;;;;;;;9.93;1.50;;;27.30;63.20;;;;;;5058495;28;20188;-71
2024/01/09 03:21:04;;;;;;;8.00;1.70;;;27.10;63.90;;;;;;5055792;28;20665;-71
2024/01/09 03:23:34;;;;;;;9.07;1.80;;;26.80;64.40;;;;;;5057305;28;20201;-70
2024/01/09 03:26:02;;;;;;;7.27;1.73;;;26.70;65.10;;;;;;5057707;28;20207;-71
2024/01/09 03:28:30;;;;;;;7.90;1.63;;;26.60;65.50;;;;;;5047826;28;20199;-71
2024/01/09 03:30:57;;;;;;;5.77;1.40;;;26.70;65.90;;;;;;5063835;28;20222;-71
2024/01/09 03:33:25;;;;;;;6.07;1.50;;;26.30;66.50;;;;;;5055749;28;20172;-72
2024/01/09 03:35:52;;;;;;;10.40;1.80;;;26.20;66.40;;;;;;5054754;28;20187;-71
2024/01/09 03:38:19;;;;;;;7.13;1.47;;;26.30;66.50;;;;;;5062464;28;20178;-72
2024/01/09 03:40:47;;;;;;;7.97;1.73;;;26.30;66.00;;;;;;5055567;28;20279;-72
2024/01/09 03:43:14;;;;;;;8.17;1.57;;;26.40;66.20;;;;;;5055568;28;20230;-72
2024/01/09 03:45:42;;;;;;;6.60;1.80;;;26.70;66.20;;;;;;5056341;28;20198;-72
2024/01/09 03:48:09;;;;;;;6.83;1.77;;;26.50;65.40;;;;;;5063713;28;20267;-71
2024/01/09 03:50:36;;;;;;;6.47;1.60;;;26.60;65.40;;;;;;5059609;28;20249;-71
2024/01/09 03:53:04;;;;;;;11.37;2.17;;;26.80;65.00;;;;;;5058840;28;20191;-71
2024/01/09 03:55:31;;;;;;;7.20;1.97;;;26.80;65.40;;;;;;5059667;28;20537;-71
2024/01/09 03:57:58;;;;;;;8.50;1.87;;;26.90;65.40;;;;;;5056176;28;20188;-72
2024/01/09 04:00:25;;;;;;;11.23;2.20;;;26.80;65.60;;;;;;5056836;28;20180;-73
2024/01/09 04:02:53;;;;;;;12.67;2.00;;;26.80;66.30;;;;;;5060441;28;20190;-69
2024/01/09 04:05:20;;;;;;;5.37;1.77;;;26.70;66.20;;;;;;5062353;28;20210;-72
2024/01/09 04:07:47;;;;;;;10.27;1.93;;;26.80;66.00;;;;;;5065144;28;20198;-71
2024/01/09 04:10:15;;;;;;;9.57;1.80;;;26.70;66.40;;;;;;5060150;28;20246;-70
2024/01/09 04:12:42;;;;;;;8.63;2.33;;;26.60;66.90;;;;;;5058901;28;20198;-72
2024/01/09 04:15:10;;;;;;;9.07;2.20;;;26.50;68.00;;;;;;5059335;28;20183;-70
2024/01/09 04:17:37;;;;;;;10.53;2.27;;;26.60;67.40;;;;;;5061360;28;20188;-70
2024/01/09 04:20:05;;;;;;;11.40;2.57;;;26.60;68.00;;;;;;5058890;28;20657;-72
2024/01/09 04:22:32;;;;;;;15.83;3.17;;;26.70;67.30;;;;;;5059678;28;20195;-72
2024/01/09 04:24:59;;;;;;;9.43;2.23;;;26.70;67.10;;;;;;5058303;28;20588;-70
2024/01/09 04:27:27;;;;;;;13.20;2.30;;;26.60;68.00;;;;;;5060998;28;20192;-72
2024/01/09 04:29:54;;;;;;;8.50;2.10;;;26.50;68.00;;;;;;5059361;28;20183;-70
2024/01/09 04:32:21;;;;;;;11.63;2.70;;;26.40;68.50;;;;;;5056426;28;20184;-71
2024/01/09 04:34:50;;;;;;;8.23;2.10;;;26.40;68.10;;;;;;5062256;28;20212;-72
2024/01/09 04:37:17;;;;;;;9.40;2.47;;;26.50;67.70;;;;;;5063595;28;20199;-71
2024/01/09 04:39:45;;;;;;;6.37;2.17;;;26.80;66.30;;;;;;5050742;28;20187;-72
2024/01/09 04:42:12;;;;;;;7.57;2.10;;;27.30;65.20;;;;;;5055908;28;20223;-72
2024/01/09 04:44:39;;;;;;;4.63;1.40;;;27.90;62.70;;;;;;5062954;28;20188;-73
2024/01/09 04:47:07;;;;;;;7.03;1.57;;;28.10;61.00;;;;;;5062276;28;20642;-72
2024/01/09 04:49:34;;;;;;;6.23;1.57;;;28.10;60.80;;;;;;5026339;28;20183;-73
2024/01/09 04:52:01;;;;;;;10.23;1.80;;;28.30;59.80;;;;;;5059064;28;20237;-71
2024/01/09 04:54:28;;;;;;;6.10;1.37;;;28.30;60.20;;;;;;5060898;28;20643;-71
2024/01/09 04:56:56;;;;;;;2.87;1.23;;;28.30;59.50;;;;;;5051077;28;20536;-73
2024/01/09 04:59:23;;;;;;;7.63;1.60;;;29.00;56.30;;;;;;5054147;28;20378;-70
2024/01/09 05:01:51;;;;;;;6.93;1.57;;;29.20;56.30;;;;;;5053601;28;20180;-72
2024/01/09 05:04:18;;;;;;;6.87;1.67;;;29.20;56.10;;;;;;5051296;28;20656;-72
2024/01/09 05:06:45;;;;;;;8.07;1.50;;;29.60;55.40;;;;;;5058584;28;20179;-71
2024/01/09 05:09:13;;;;;;;5.15;1.63;;;30.20;54.10;;;;;;5055361;28;20191;-73
2024/01/09 05:11:40;;;;;;;4.20;1.52;;;30.80;52.40;;;;;;5043535;28;20580;-72
2024/01/09 05:14:08;;;;;;;6.13;1.52;;;30.70;53.20;;;;;;5047396;28;20176;-73
2024/01/09 05:16:35;;;;;;;3.85;1.42;;;30.40;53.10;;;;;;5058487;28;20265;-73
2024/01/09 05:19:02;;;;;;;8.30;1.70;;;30.30;52.20;;;;;;5055134;28;20218;-71
2024/01/09 05:21:32;;;;;;;2.47;1.00;;;29.80;53.90;;;;;;5049924;28;20279;-71
2024/01/09 05:23:59;;;;;;;6.50;1.33;;;29.60;54.10;;;;;;5046214;28;20673;-73
2024/01/09 05:26:27;;;;;;;5.93;1.70;;;29.80;54.20;;;;;;5038525;28;20184;-71
2024/01/09 05:28:54;;;;;;;10.95;1.50;;;30.00;53.90;;;;;;5057466;28;20199;-72
2024/01/09 05:31:23;;;;;;;5.22;1.48;;;30.10;52.90;;;;;;5051559;28;20207;-71
2024/01/09 05:33:50;;;;;;;4.43;1.30;;;29.80;54.20;;;;;;5039821;28;20654;-71
2024/01/09 05:36:22;;;;;;;6.37;1.03;;;29.20;55.10;;;;;;5053214;28;20188;-73
2024/01/09 05:38:53;;;;;;;4.87;1.53;;;28.30;58.30;;;;;;5049583;28;20263;-71
2024/01/09 05:41:23;;;;;;;4.97;1.70;;;28.00;59.80;;;;;;5045383;28;20547;-71
2024/01/09 05:43:51;;;;;;;6.23;1.70;;;27.70;60.70;;;;;;5053772;28;20184;-71
2024/01/09 05:46:18;;;;;;;6.27;1.77;;;27.30;62.60;;;;;;5046649;28;20344;-72
2024/01/09 05:48:45;;;;;;;4.57;1.40;;;26.90;63.80;;;;;;5046712;28;20188;-71
2024/01/09 05:51:13;;;;;;;4.70;1.93;;;27.80;61.70;;;;;;5041974;28;20416;-71
2024/01/09 05:53:41;;;;;;;4.73;1.67;;;27.90;60.90;;;;;;5054659;28;20214;-72
2024/01/09 05:56:08;;;;;;;10.53;1.93;;;28.20;60.60;;;;;;5046952;28;20234;-73
2024/01/09 05:58:35;;;;;;;6.23;1.60;;;27.80;62.10;;;;;;5058987;28;20657;-72
2024/01/09 06:01:03;;;;;;;6.93;1.50;;;28.50;60.30;;;;;;5058052;28;20485;-71
2024/01/09 06:03:30;;;;;;;7.07;1.70;;;28.90;57.90;;;;;;5041793;28;20315;-71
2024/01/09 06:05:57;;;;;;;11.73;2.00;;;28.20;60.40;;;;;;5052711;28;20176;-72
2024/01/09 06:08:25;;;;;;;5.37;1.43;;;28.30;61.00;;;;;;5057701;28;20179;-71
2024/01/09 06:10:53;;;;;;;7.37;1.67;;;28.80;58.50;;;;;;5051799;28;20270;-71
2024/01/09 06:13:20;;;;;;;6.87;1.70;;;29.00;58.50;;;;;;5052021;28;20186;-72
2024/01/09 06:15:48;;;;;;;5.50;1.40;;;29.60;55.60;;;;;;5055733;28;20188;-71
2024/01/09 06:18:15;;;;;;;5.10;1.40;;;30.00;55.10;;;;;;5055274;28;20180;-73
2024/01/09 06:20:43;;;;;;;3.58;1.35;;;30.70;54.00;;;;;;5066562;28;20176;-73
2024/01/09 06:23:11;;;;;;;2.78;1.42;;;31.60;50.80;;;;;;5055043;28;20227;-72
2024/01/09 06:25:38;;;;;;;4.43;1.40;;;32.10;50.30;;;;;;5053129;28;20721;-72
2024/01/09 06:28:06;;;;;;;5.43;1.20;;;32.20;49.60;;;;;;5030017;28;20276;-72
2024/01/09 06:30:34;;;;;;;5.03;1.40;;;32.10;49.60;;;;;;5052385;28;20281;-73
2024/01/09 06:33:02;;;;;;;6.07;1.20;;;31.80;50.60;;;;;;5047137;28;20184;-73
2024/01/09 06:35:29;;;;;;;6.10;1.48;;;30.70;53.40;;;;;;5053557;28;20188;-73
2024/01/09 06:37:57;;;;;;;5.22;1.42;;;29.30;56.60;;;;;;5052755;28;20290;-73
2024/01/09 06:40:24;;;;;;;4.93;1.23;;;28.30;59.20;;;;;;5060222;28;20638;-73
2024/01/09 06:42:52;;;;;;;5.90;1.43;;;27.30;61.70;;;;;;5072373;28;20219;-72
2024/01/09 06:45:19;;;;;;;5.90;1.57;;;26.90;63.30;;;;;;5055313;28;20188;-72
2024/01/09 06:47:47;;;;;;;4.33;1.33;;;26.70;64.60;;;;;;5055354;28;20623;-71
2024/01/09 06:50:14;;;;;;;12.00;1.67;;;26.50;65.30;;;;;;5052822;28;20175;-71
2024/01/09 06:52:42;;;;;;;6.50;1.57;;;26.30;66.30;;;;;;5054349;28;20665;-71
2024/01/09 06:55:09;;;;;;;6.03;1.70;;;26.10;67.00;;;;;;5047847;28;20259;-72
2024/01/09 06:57:37;;;;;;;2.93;1.50;;;26.00;67.50;;;;;;5070999;28;20338;-72
2024/01/09 07:00:05;;;;;;;5.80;1.70;;;25.90;68.30;;;;;;5063925;28;20645;-71
2024/01/09 07:02:32;;;;;;;5.33;1.50;;;25.80;68.90;;;;;;5053677;28;20226;-71
2024/01/09 07:04:59;;;;;;;4.40;1.30;;;25.60;69.40;;;;;;5056025;28;20175;-72
2024/01/09 07:07:27;;;;;;;10.57;1.83;;;25.30;70.00;;;;;;5057473;28;20257;-72
2024/01/09 07:09:54;;;;;;;5.70;1.70;;;25.30;70.10;;;;;;5053470;28;20178;-73
2024/01/09 07:12:21;;;;;;;6.57;1.50;;;25.30;70.60;;;;;;5052743;28;20226;-72
2024/01/09 07:14:49;;;;;;;6.67;1.40;;;25.20;70.90;;;;;;5053942;28;20206;-73
2024/01/09 07:17:28;;;;;;;4.90;1.53;;;25.20;71.20;;;;;;5048261;28;20180;-74
2024/01/09 07:19:55;;;;;;;9.93;2.63;;;25.20;71.90;;;;;;5041876;28;20187;-73
2024/01/09 07:22:22;;;;;;;4.67;1.43;;;25.20;71.90;;;;;;5045083;28;20543;-72
2024/01/09 07:24:50;;;;;;;10.03;1.90;;;25.20;72.30;;;;;;5059612;28;20637;-75
2024/01/09 07:27:35;;;;;;;8.70;2.23;;;25.10;72.80;;;;;;5066715;28;20175;-74
2024/01/09 07:30:03;;;;;;;12.97;2.73;;;25.00;73.30;;;;;;5043834;28;20180;-70
2024/01/09 07:32:30;;;;;;;8.73;2.70;;;24.90;73.90;;;;;;5053873;28;20264;-73
2024/01/09 07:34:58;;;;;;;16.10;2.60;;;24.80;74.60;;;;;;5043405;28;20193;-71
2024/01/09 07:37:25;;;;;;;8.03;2.13;;;24.80;74.50;;;;;;5054938;28;20183;-74
2024/01/09 07:39:52;;;;;;;9.70;1.90;;;24.70;74.90;;;;;;5068075;28;20183;-72
2024/01/09 07:42:20;;;;;;;9.10;2.00;;;24.70;74.80;;;;;;5069832;28;20689;-71
2024/01/09 07:44:47;;;;;;;10.30;2.40;;;24.60;74.60;;;;;;5072191;28;20179;-71
2024/01/09 07:47:15;;;;;;;12.53;2.60;;;24.60;74.90;;;;;;5071751;28;20683;-71
2024/01/09 07:49:54;;;;;;;9.07;2.00;;;24.70;75.00;;;;;;5071237;28;20186;-72
2024/01/09 07:52:21;;;;;;;10.77;2.53;;;24.60;74.50;;;;;;5059648;28;20207;-71
2024/01/09 07:54:49;;;;;;;9.30;2.17;;;24.60;75.10;;;;;;5047644;28;20262;-72
2024/01/09 07:57:17;;;;;;;8.00;1.93;;;24.50;75.00;;;;;;5052669;28;20183;-71
2024/01/09 07:59:44;;;;;;;7.73;2.00;;;24.40;75.40;;;;;;5050645;28;20191;-71
2024/01/09 08:02:22;;;;;;;7.80;1.90;;;24.40;75.50;;;;;;5051782;28;20524;-72
2024/01/09 08:04:53;;;;;;;9.63;2.10;;;24.40;75.90;;;;;;5051453;28;20184;-74
2024/01/09 08:07:23;;;;;;;13.53;2.47;;;24.30;75.90;;;;;;5042872;28;20706;-72
2024/01/09 08:09:51;;;;;;;10.07;2.27;;;24.30;75.90;;;;;;5054262;28;20186;-73
2024/01/09 08:12:25;;;;;;;8.53;2.03;;;24.20;76.10;;;;;;5053587;28;20574;-71
2024/01/09 08:14:55;;;;;;;6.80;2.13;;;24.30;76.20;;;;;;5052956;28;20550;-73
2024/01/09 08:17:22;;;;;;;11.10;2.40;;;24.30;75.80;;;;;;5052097;28;20633;-71
2024/01/09 08:19:50;;;;;;;9.27;1.97;;;24.20;75.60;;;;;;5051903;28;20560;-72
2024/01/09 08:22:20;;;;;;;7.87;1.87;;;24.30;75.70;;;;;;5037406;28;20188;-72
2024/01/09 08:24:47;;;;;;;10.20;1.97;;;24.30;75.80;;;;;;5049955;28;20176;-72
2024/01/09 08:27:15;;;;;;;16.63;2.30;;;24.30;75.80;;;;;;5053193;28;20188;-71
2024/01/09 08:29:44;;;;;;;6.97;2.10;;;24.30;75.80;;;;;;5062190;28;20591;-72
2024/01/09 08:32:15;;;;;;;7.43;2.40;;;24.30;75.80;;;;;;5039391;28;20262;-71
2024/01/09 08:34:42;;;;;;;8.40;1.77;;;24.10;76.00;;;;;;5054618;28;20183;-72
2024/01/09 08:37:10;;;;;;;8.23;1.93;;;24.10;76.10;;;;;;5052425;28;20177;-70
2024/01/09 08:39:37;;;;;;;9.37;2.37;;;24.00;76.20;;;;;;5062499;28;20585;-72
2024/01/09 08:42:04;;;;;;;10.37;2.13;;;24.00;76.40;;;;;;5069906;28;20215;-71
2024/01/09 08:44:32;;;;;;;7.10;2.13;;;24.00;76.30;;;;;;5065186;28;20187;-72
2024/01/09 08:47:00;;;;;;;11.17;2.10;;;24.00;76.60;;;;;;5071204;28;20225;-74
2024/01/09 08:49:27;;;;;;;9.93;1.90;;;24.00;77.00;;;;;;5055717;28;20180;-71
2024/01/09 08:51:55;;;;;;;9.57;2.40;;;24.00;77.10;;;;;;5061359;28;20294;-73
2024/01/09 08:54:22;;;;;;;9.73;2.10;;;23.90;77.40;;;;;;5055732;28;20661;-72
2024/01/09 08:56:50;;;;;;;7.80;1.73;;;23.80;77.40;;;;;;5057419;28;20637;-73
2024/01/09 08:59:17;;;;;;;10.43;2.10;;;23.80;77.40;;;;;;5072635;28;20546;-74
2024/01/09 09:01:44;;;;;;;8.60;1.87;;;23.80;77.80;;;;;;5054035;28;20653;-72
2024/01/09 09:04:11;;;;;;;7.30;2.27;;;23.80;77.90;;;;;;5072792;28;20258;-72
2024/01/09 09:06:39;;;;;;;9.80;2.10;;;23.80;78.00;;;;;;5062369;28;20183;-72
2024/01/09 09:09:09;;;;;;;8.60;2.13;;;23.80;78.10;;;;;;5055016;28;20235;-73
2024/01/09 09:11:37;;;;;;;9.63;2.70;;;23.80;78.40;;;;;;5054755;28;20207;-72
2024/01/09 09:14:04;;;;;;;8.57;2.20;;;23.80;78.70;;;;;;5069712;28;20660;-72
2024/01/09 09:16:31;;;;;;;7.53;2.13;;;23.80;78.70;;;;;;5075186;28;20292;-73
2024/01/09 09:18:59;;;;;;;11.73;2.43;;;23.80;78.80;;;;;;5067263;28;20255;-73
2024/01/09 09:21:30;;;;;;;10.07;2.27;;;23.70;78.50;;;;;;5054604;28;20180;-73
2024/01/09 09:23:57;;;;;;;9.97;2.20;;;23.70;78.30;;;;;;5057933;28;20633;-74
2024/01/09 09:26:25;;;;;;;10.37;2.00;;;23.60;78.60;;;;;;5074239;28;20183;-74
2024/01/09 09:28:53;;;;;;;11.53;2.40;;;23.60;78.40;;;;;;5060480;28;20168;-71
2024/01/09 09:31:20;;;;;;;11.93;2.40;;;23.60;78.40;;;;;;5053556;28;20238;-73
2024/01/09 09:33:50;;;;;;;8.90;1.97;;;23.50;78.40;;;;;;5067203;28;20200;-74
2024/01/09 09:36:18;;;;;;;10.80;2.50;;;23.60;78.50;;;;;;5056541;28;20176;-72
2024/01/09 09:38:46;;;;;;;9.77;2.30;;;23.60;78.20;;;;;;5053537;28;20184;-73
2024/01/09 09:41:16;;;;;;;9.53;2.60;;;23.50;78.40;;;;;;5056750;28;20584;-73
2024/01/09 09:43:50;;;;;;;11.73;2.50;;;23.50;78.40;;;;;;5047313;28;20301;-72
2024/01/09 09:46:25;;;;;;;13.67;2.70;;;23.50;78.50;;;;;;5056406;28;20186;-72
2024/01/09 09:48:54;;;;;;;12.30;2.10;;;23.50;78.60;;;;;;5053598;28;20207;-74
2024/01/09 09:51:23;;;;;;;22.63;3.43;;;23.50;78.80;;;;;;5058412;28;20238;-73
2024/01/09 09:53:54;;;;;;;14.80;3.13;;;23.60;78.50;;;;;;5052912;28;20199;-72
2024/01/09 09:56:22;;;;;;;12.60;2.47;;;23.50;78.60;;;;;;5055085;28;20214;-71
2024/01/09 09:58:49;;;;;;;13.23;2.80;;;23.50;78.50;;;;;;5062644;28;20206;-71
2024/01/09 10:01:19;;;;;;;14.43;2.70;;;23.60;78.50;;;;;;5052688;28;20601;-71
2024/01/09 10:03:55;;;;;;;9.77;2.43;;;23.50;78.60;;;;;;5052597;28;20199;-73
2024/01/09 10:06:23;;;;;;;13.60;2.80;;;23.50;78.90;;;;;;5056434;28;20234;-71
2024/01/09 10:08:54;;;;;;;14.40;2.77;;;23.50;78.90;;;;;;5052318;28;20180;-71
2024/01/09 10:11:21;;;;;;;12.30;2.73;;;23.50;78.90;;;;;;5053299;28;20242;-71
2024/01/09 10:13:49;;;;;;;13.87;2.70;;;23.50;78.90;;;;;;5055647;28;20187;-72
2024/01/09 10:16:16;;;;;;;14.00;2.40;;;23.40;79.10;;;;;;5052481;28;20176;-71
2024/01/09 10:18:45;;;;;;;13.27;2.40;;;23.40;79.20;;;;;;5050410;28;20198;-71
2024/01/09 10:21:12;;;;;;;16.13;2.90;;;23.40;79.10;;;;;;5054027;28;20278;-71
2024/01/09 10:23:40;;;;;;;15.33;2.73;;;23.30;79.20;;;;;;5066550;28;20249;-71
2024/01/09 10:26:14;;;;;;;13.60;2.33;;;23.30;79.30;;;;;;5062910;28;20235;-71
2024/01/09 10:28:41;;;;;;;11.90;2.60;;;23.30;79.50;;;;;;5057761;28;20245;-72
2024/01/09 10:31:09;;;;;;;12.57;2.40;;;23.30;79.60;;;;;;5051250;28;20219;-71
2024/01/09 10:33:40;;;;;;;13.00;2.37;;;23.30;79.30;;;;;;5057289;28;20650;-71
2024/01/09 10:36:09;;;;;;;6.93;1.93;;;23.30;79.50;;;;;;5056380;28;20586;-71
2024/01/09 10:38:36;;;;;;;13.07;2.67;;;23.30;79.60;;;;;;5053761;28;20620;-71
2024/01/09 10:41:30;;;;;;;16.97;2.77;;;23.20;79.10;;;;;;5055205;28;20195;-71
2024/01/09 10:43:59;;;;;;;11.33;2.80;;;23.20;78.90;;;;;;5026862;28;20196;-70
2024/01/09 10:46:29;;;;;;;12.47;2.67;;;23.10;79.00;;;;;;5036963;28;20203;-71
2024/01/09 10:48:58;;;;;;;11.37;2.70;;;23.20;79.30;;;;;;5033060;28;20310;-71
2024/01/09 10:51:26;;;;;;;16.33;2.97;;;23.10;79.60;;;;;;5028720;28;20216;-72
2024/01/09 10:53:55;;;;;;;17.80;2.93;;;23.10;79.80;;;;;;5040088;28;20184;-71
2024/01/09 10:56:22;;;;;;;12.13;2.57;;;23.10;80.00;;;;;;5039210;28;20194;-72
2024/01/09 10:58:50;;;;;;;8.50;2.77;;;23.10;80.00;;;;;;5043277;28;20230;-70
2024/01/09 11:01:18;;;;;;;12.30;2.70;;;23.10;80.00;;;;;;5034693;28;20227;-71
2024/01/09 11:03:47;;;;;;;12.47;2.60;;;23.10;79.80;;;;;;5039342;28;20215;-71
2024/01/09 11:06:17;;;;;;;10.73;2.83;;;23.00;79.40;;;;;;5051540;28;20176;-72
2024/01/09 11:08:50;;;;;;;13.93;2.60;;;23.10;79.30;;;;;;5037757;28;20186;-74
2024/01/09 11:11:19;;;;;;;11.90;2.67;;;23.10;79.00;;;;;;5034819;28;20295;-71
2024/01/09 11:13:51;;;;;;;10.07;2.97;;;23.00;78.70;;;;;;5038423;28;20163;-73
2024/01/09 11:16:21;;;;;;;13.37;3.23;;;23.10;78.80;;;;;;5026629;28;20268;-72
2024/01/09 11:18:49;;;;;;;10.37;2.40;;;23.10;78.60;;;;;;5052075;28;20254;-72
2024/01/09 11:21:25;;;;;;;13.73;3.00;;;23.10;78.50;;;;;;5038258;28;20191;-73
2024/01/09 11:23:54;;;;;;;13.30;2.73;;;23.00;78.60;;;;;;5046477;28;20176;-73
2024/01/09 11:26:23;;;;;;;10.60;2.37;;;23.00;78.70;;;;;;5039536;28;20188;-72
2024/01/09 11:28:50;;;;;;;10.27;2.60;;;23.10;78.70;;;;;;5045383;28;20639;-72
2024/01/09 11:31:20;;;;;;;11.57;2.40;;;23.00;78.80;;;;;;5034591;28;20242;-73
2024/01/09 11:33:54;;;;;;;10.97;2.67;;;23.10;78.70;;;;;;5035816;28;20179;-73
2024/01/09 11:36:29;;;;;;;13.17;3.10;;;23.10;78.90;;;;;;5044151;28;20183;-74
2024/01/09 11:38:57;;;;;;;12.37;2.70;;;23.00;78.80;;;;;;5026787;28;20184;-73
2024/01/09 11:41:32;;;;;;;13.50;3.00;;;23.00;78.90;;;;;;5033317;28;20262;-72
2024/01/09 11:44:04;;;;;;;11.87;2.67;;;23.00;79.00;;;;;;5054504;28;20269;-73
2024/01/09 11:46:37;;;;;;;8.87;2.53;;;22.90;79.10;;;;;;5071188;28;20258;-73
2024/01/09 11:49:09;;;;;;;10.70;2.10;;;22.90;79.20;;;;;;5072540;28;20592;-74
2024/01/09 11:51:37;;;;;;;15.00;2.67;;;22.90;79.40;;;;;;5068672;28;20247;-72
2024/01/09 11:54:11;;;;;;;12.87;2.47;;;22.90;79.40;;;;;;5057443;28;20250;-73
2024/01/09 11:56:38;;;;;;;14.63;3.10;;;22.90;79.40;;;;;;5060456;28;20229;-74
2024/01/09 11:59:05;;;;;;;10.03;2.50;;;22.90;79.50;;;;;;5068403;28;20198;-72
2024/01/09 12:01:32;;;;;;;14.00;3.90;;;22.90;79.60;;;;;;5075280;28;20186;-74
2024/01/09 12:04:00;;;;;;;15.07;3.20;;;22.90;79.60;;;;;;5069433;28;20183;-74
2024/01/09 12:06:32;;;;;;;12.53;2.50;;;22.80;79.90;;;;;;5065169;28;20182;-73
2024/01/09 12:09:00;;;;;;;11.57;3.07;;;22.80;79.90;;;;;;5052551;28;20184;-73
2024/01/09 12:11:27;;;;;;;20.00;3.00;;;22.80;80.00;;;;;;5065479;28;20210;-73
2024/01/09 12:14:05;;;;;;;12.33;2.57;;;22.80;80.00;;;;;;5056751;28;20642;-74
2024/01/09 12:16:34;;;;;;;14.67;2.80;;;22.80;79.90;;;;;;5075837;28;20175;-74
2024/01/09 12:19:02;;;;;;;11.17;2.43;;;22.80;80.00;;;;;;5075760;28;20227;-72
2024/01/09 12:21:33;;;;;;;12.67;3.23;;;22.80;80.10;;;;;;5056104;28;20183;-72
2024/01/09 12:24:04;;;;;;;14.63;2.80;;;22.80;80.00;;;;;;5056357;28;20220;-73
2024/01/09 12:26:32;;;;;;;10.70;2.60;;;22.80;80.10;;;;;;5071174;28;20726;-72
2024/01/09 12:29:00;;;;;;;11.17;2.50;;;22.80;80.20;;;;;;5072679;28;20176;-71
2024/01/09 12:31:28;;;;;;;12.80;2.70;;;22.90;80.10;;;;;;5063890;28;20665;-73
2024/01/09 12:33:55;;;;;;;12.50;3.00;;;22.80;80.00;;;;;;5075239;28;20171;-73
2024/01/09 12:36:27;;;;;;;15.63;3.10;;;22.90;80.00;;;;;;5062756;28;20248;-70
2024/01/09 12:38:56;;;;;;;17.97;3.23;;;22.90;79.90;;;;;;5051450;28;20188;-73
2024/01/09 12:41:24;;;;;;;15.67;2.93;;;22.90;80.00;;;;;;5056099;28;20666;-72
2024/01/09 12:43:52;;;;;;;18.20;3.03;;;22.90;79.90;;;;;;5040523;28;20196;-71
2024/01/09 12:46:21;;;;;;;11.03;2.67;;;22.90;79.60;;;;;;5055030;28;20196;-71
2024/01/09 12:48:50;;;;;;;13.20;2.97;;;22.90;79.80;;;;;;5024704;28;20204;-71